Faber Place, SC

5:26 AM EST on January 17, 2017 (GMT -0500)
| | Change Station

Elev -9999 ft 0.00 °N, 0.00 °E | Updated 0 second ago

Overcast
Overcast
°F
Feels Like °F
N
Wind Variable Wind from North
Gusts mph

Today
High -- | Low -- °F
--% Chance of Precip.
Yesterday
High -- | Low -- °F
Precip. -- in
Pressure 30.25 in
Visibility 0.2 miles
Clouds
Dew Point Not available.
Humidity Not available.
Rainfall --
Snow Depth Not available.
7:22 AM 5:38 PM
Waning Gibbous, 73% visible
METAR KCHS 170956Z 35004KT 1/4SM R15/1400V1600FT FG VV002 13/12 A3025 RMK AO2 SLP241 T01280117
Pressure 30.25 in
Visibility 0.2 miles
Clouds
Dew Point Not available.
Humidity Not available.
Rainfall --
Snow Depth Not available.
7:22 AM 5:38 PM
Waning Gibbous, 73% visible
METAR KCHS 170956Z 35004KT 1/4SM R15/1400V1600FT FG VV002 13/12 A3025 RMK AO2 SLP241 T01280117

Get Your Daily Forecast Email!

Thanks for signing up!

Be on the lookout for a verification email in your inbox.

You'll start receiving the daily forecast at 8 AM.

×

10-Day Weather Forecast

Almanac

Astronomy

Jan. 17, 2017 Rise Set
Actual Time
Civil Twilight
Nautical Twilight
Astronomical Twilight
Moon
Length of Visible Light
Length of Day
Tomorrow will be .
, % of the Moon is Illuminated

Today's Extremes

State Highs State Lows

Community

WunderPhotos

Upload Photos

1,962,540 photos uploaded!

WunderBlog® & News

Nearby

Air Quality

  Air Quality AQ Index Pollutant
Not available.

Snow Depth

Station Depth Elevation

Earthquake Activity

City Distance Mag. Time & Date
Minimum magnitude displayed is 2.5.

Coastal Water Temperatures

Place Temperature

Stations

Nearby Weather Stations

Station Location Temp. Windchill Dew Point Humidity Wind Precip. Elev Updated Type
                   

Watches & Warnings

Dense Fog Advisory
Issued: 3:20 AM EST Jan. 17, 2017 – National Weather Service

... Dense fog advisory in effect until 10 am EST this morning...

The National Weather Service in Charleston has issued a dense fog
advisory... which is in effect until 10 am EST this morning.

* Visibilities... one quarter mile or less at times.

* Impacts... low visibility will make travel difficult.

Precautionary/preparedness actions...

Be prepared for increased travel time. If driving... slow down...
use low beam headlights... and leave plenty of distance ahead of
you in case a sudden stop is needed.




Marine Fog Advisory
Issued: 3:22 AM EST Jan. 17, 2017 – National Weather Service

... Dense fog advisory in effect until 10 am EST this morning...

The National Weather Service in Charleston has issued a dense fog
advisory... which is in effect until 10 am EST this morning.

* Visibility... one quarter mile or less at times.

Precautionary/preparedness actions...

If you must navigate... proceed with caution. Use proper fog
signals. Make sure all running lights are on. Remember to use
your radar and Compass.